sensor_id;sensor_type;location;lat;lon;timestamp;pressure;altitude;pressure_sealevel;temperature;humidity
12146;BME280;6136;47.032;15.398;2023-03-19T00:01:07;97533.88;;;2.41;93.10
12146;BME280;6136;47.032;15.398;2023-03-19T00:03:35;97525.19;;;2.41;93.44
12146;BME280;6136;47.032;15.398;2023-03-19T00:06:04;97532.09;;;2.43;93.35
12146;BME280;6136;47.032;15.398;2023-03-19T00:08:32;97523.34;;;2.44;93.15
12146;BME280;6136;47.032;15.398;2023-03-19T00:11:05;97519.97;;;2.41;93.69
12146;BME280;6136;47.032;15.398;2023-03-19T00:13:34;97522.72;;;2.36;93.45
12146;BME280;6136;47.032;15.398;2023-03-19T00:16:03;97523.81;;;2.29;93.78
12146;BME280;6136;47.032;15.398;2023-03-19T00:18:32;97521.28;;;2.26;94.67
12146;BME280;6136;47.032;15.398;2023-03-19T00:21:00;97523.88;;;2.26;94.75
12146;BME280;6136;47.032;15.398;2023-03-19T00:23:28;97531.81;;;2.23;95.44
12146;BME280;6136;47.032;15.398;2023-03-19T00:25:57;97529.28;;;2.21;95.37
12146;BME280;6136;47.032;15.398;2023-03-19T00:28:25;97522.38;;;2.19;95.75
12146;BME280;6136;47.032;15.398;2023-03-19T00:30:55;97529.38;;;2.17;95.52
12146;BME280;6136;47.032;15.398;2023-03-19T00:33:23;97532.03;;;2.15;95.43
12146;BME280;6136;47.032;15.398;2023-03-19T00:35:53;97521.53;;;2.17;95.31
12146;BME280;6136;47.032;15.398;2023-03-19T00:38:21;97517.31;;;2.13;95.49
12146;BME280;6136;47.032;15.398;2023-03-19T00:40:49;97519.16;;;2.09;95.89
12146;BME280;6136;47.032;15.398;2023-03-19T00:43:17;97508.03;;;2.03;95.54
12146;BME280;6136;47.032;15.398;2023-03-19T00:45:45;97513.25;;;2.03;96.00
12146;BME280;6136;47.032;15.398;2023-03-19T00:48:16;97509.78;;;2.02;96.33
12146;BME280;6136;47.032;15.398;2023-03-19T00:50:44;97513.38;;;2.00;96.52
12146;BME280;6136;47.032;15.398;2023-03-19T00:53:12;97515.28;;;1.93;96.69
12146;BME280;6136;47.032;15.398;2023-03-19T00:55:40;97510.03;;;1.93;96.58
12146;BME280;6136;47.032;15.398;2023-03-19T00:58:09;97499.66;;;1.91;97.13
12146;BME280;6136;47.032;15.398;2023-03-19T01:00:37;97500.56;;;1.90;97.18
12146;BME280;6136;47.032;15.398;2023-03-19T01:03:08;97512.63;;;1.94;96.94
12146;BME280;6136;47.032;15.398;2023-03-19T01:05:38;97510.97;;;1.92;97.44
12146;BME280;6136;47.032;15.398;2023-03-19T01:08:06;97516.22;;;1.90;96.93
12146;BME280;6136;47.032;15.398;2023-03-19T01:10:34;97523.19;;;1.91;96.92
12146;BME280;6136;47.032;15.398;2023-03-19T01:13:03;97511.09;;;1.87;96.88
12146;BME280;6136;47.032;15.398;2023-03-19T01:15:34;97503.25;;;1.87;97.26
12146;BME280;6136;47.032;15.398;2023-03-19T01:18:03;97497.97;;;1.89;97.57
12146;BME280;6136;47.032;15.398;2023-03-19T01:20:32;97498.81;;;1.91;97.51
12146;BME280;6136;47.032;15.398;2023-03-19T01:23:02;97503.44;;;1.81;98.06
12146;BME280;6136;47.032;15.398;2023-03-19T01:25:30;97505.97;;;1.84;97.75
12146;BME280;6136;47.032;15.398;2023-03-19T01:28:03;97507.75;;;1.82;98.30
12146;BME280;6136;47.032;15.398;2023-03-19T01:30:31;97499.88;;;1.84;98.75
12146;BME280;6136;47.032;15.398;2023-03-19T01:33:18;97493.88;;;1.80;98.42
12146;BME280;6136;47.032;15.398;2023-03-19T01:36:01;97486.94;;;1.79;98.35
12146;BME280;6136;47.032;15.398;2023-03-19T01:38:43;97503.50;;;1.78;98.81
12146;BME280;6136;47.032;15.398;2023-03-19T01:41:14;97504.31;;;1.80;98.79
12146;BME280;6136;47.032;15.398;2023-03-19T01:43:43;97490.59;;;1.74;99.19
12146;BME280;6136;47.032;15.398;2023-03-19T01:46:25;97497.50;;;1.76;99.04
12146;BME280;6136;47.032;15.398;2023-03-19T01:49:13;97498.50;;;1.71;99.51
12146;BME280;6136;47.032;15.398;2023-03-19T01:51:46;97494.22;;;1.68;100.00
12146;BME280;6136;47.032;15.398;2023-03-19T01:54:29;97496.84;;;1.68;100.00
12146;BME280;6136;47.032;15.398;2023-03-19T01:57:25;97489.94;;;1.66;100.00
12146;BME280;6136;47.032;15.398;2023-03-19T02:00:27;97495.16;;;1.66;100.00
12146;BME280;6136;47.032;15.398;2023-03-19T02:02:59;97494.31;;;1.65;100.00
12146;BME280;6136;47.032;15.398;2023-03-19T02:05:51;97484.72;;;1.66;100.00
12146;BME280;6136;47.032;15.398;2023-03-19T02:08:23;97489.97;;;1.64;100.00
12146;BME280;6136;47.032;15.398;2023-03-19T02:10:53;97485.56;;;1.66;100.00
12146;BME280;6136;47.032;15.398;2023-03-19T02:13:22;97493.44;;;1.65;100.00
12146;BME280;6136;47.032;15.398;2023-03-19T02:15:50;97499.53;;;1.65;100.00
12146;BME280;6136;47.032;15.398;2023-03-19T02:18:20;97496.03;;;1.66;100.00
12146;BME280;6136;47.032;15.398;2023-03-19T02:20:50;97489.09;;;1.65;100.00
12146;BME280;6136;47.032;15.398;2023-03-19T02:23:26;97486.38;;;1.70;100.00
12146;BME280;6136;47.032;15.398;2023-03-19T02:26:05;97493.28;;;1.71;100.00
12146;BME280;6136;47.032;15.398;2023-03-19T02:28:36;97487.13;;;1.73;100.00
12146;BME280;6136;47.032;15.398;2023-03-19T02:31:06;97487.28;;;1.67;100.00
12146;BME280;6136;47.032;15.398;2023-03-19T02:33:34;97496.38;;;1.54;100.00
12146;BME280;6136;47.032;15.398;2023-03-19T02:36:05;97504.25;;;1.52;100.00
12146;BME280;6136;47.032;15.398;2023-03-19T02:38:35;97492.88;;;1.55;100.00
12146;BME280;6136;47.032;15.398;2023-03-19T02:41:07;97477.31;;;1.50;100.00
12146;BME280;6136;47.032;15.398;2023-03-19T02:43:40;97481.56;;;1.54;100.00
12146;BME280;6136;47.032;15.398;2023-03-19T02:46:11;97492.00;;;1.54;100.00
12146;BME280;6136;47.032;15.398;2023-03-19T02:48:40;97492.88;;;1.55;100.00
12146;BME280;6136;47.032;15.398;2023-03-19T02:51:08;97496.44;;;1.51;100.00
12146;BME280;6136;47.032;15.398;2023-03-19T02:53:36;97492.22;;;1.47;100.00
12146;BME280;6136;47.032;15.398;2023-03-19T02:56:06;97498.31;;;1.47;100.00
12146;BME280;6136;47.032;15.398;2023-03-19T02:58:34;97500.09;;;1.45;100.00
12146;BME280;6136;47.032;15.398;2023-03-19T03:01:03;97495.03;;;1.39;100.00
12146;BME280;6136;47.032;15.398;2023-03-19T03:03:32;97501.19;;;1.37;100.00
12146;BME280;6136;47.032;15.398;2023-03-19T03:06:00;97504.59;;;1.40;100.00
12146;BME280;6136;47.032;15.398;2023-03-19T03:08:28;97491.56;;;1.39;100.00
12146;BME280;6136;47.032;15.398;2023-03-19T03:10:56;97491.66;;;1.36;100.00
12146;BME280;6136;47.032;15.398;2023-03-19T03:13:25;97492.66;;;1.30;100.00
12146;BME280;6136;47.032;15.398;2023-03-19T03:15:53;97498.91;;;1.25;100.00
12146;BME280;6136;47.032;15.398;2023-03-19T03:18:22;97495.41;;;1.26;100.00
12146;BME280;6136;47.032;15.398;2023-03-19T03:20:50;97490.31;;;1.21;100.00
12146;BME280;6136;47.032;15.398;2023-03-19T03:23:19;97489.47;;;1.19;100.00
12146;BME280;6136;47.032;15.398;2023-03-19T03:25:49;97500.19;;;1.10;100.00
12146;BME280;6136;47.032;15.398;2023-03-19T03:28:18;97501.94;;;1.09;100.00
12146;BME280;6136;47.032;15.398;2023-03-19T03:30:47;97497.38;;;1.17;100.00
12146;BME280;6136;47.032;15.398;2023-03-19T03:33:15;97493.88;;;1.19;100.00
12146;BME280;6136;47.032;15.398;2023-03-19T03:35:44;97499.13;;;1.17;100.00
12146;BME280;6136;47.032;15.398;2023-03-19T03:38:12;97497.44;;;1.14;100.00
12146;BME280;6136;47.032;15.398;2023-03-19T03:40:41;97489.59;;;1.14;100.00
12146;BME280;6136;47.032;15.398;2023-03-19T03:43:09;97487.78;;;1.18;100.00
12146;BME280;6136;47.032;15.398;2023-03-19T03:45:38;97486.94;;;1.17;100.00
12146;BME280;6136;47.032;15.398;2023-03-19T03:48:08;97484.38;;;1.14;100.00
12146;BME280;6136;47.032;15.398;2023-03-19T03:50:37;97489.53;;;1.17;100.00
12146;BME280;6136;47.032;15.398;2023-03-19T03:53:08;97489.69;;;1.11;100.00
12146;BME280;6136;47.032;15.398;2023-03-19T03:55:38;97491.34;;;1.14;100.00
12146;BME280;6136;47.032;15.398;2023-03-19T03:58:06;97482.88;;;1.06;100.00
12146;BME280;6136;47.032;15.398;2023-03-19T04:00:35;97496.13;;;0.98;100.00
12146;BME280;6136;47.032;15.398;2023-03-19T04:03:03;97487.56;;;0.93;100.00
12146;BME280;6136;47.032;15.398;2023-03-19T04:05:33;97493.44;;;1.01;100.00
12146;BME280;6136;47.032;15.398;2023-03-19T04:08:02;97488.31;;;0.97;100.00
12146;BME280;6136;47.032;15.398;2023-03-19T04:10:30;97499.72;;;0.94;100.00
12146;BME280;6136;47.032;15.398;2023-03-19T04:12:59;97493.59;;;0.95;100.00
12146;BME280;6136;47.032;15.398;2023-03-19T04:15:29;97502.34;;;0.93;100.00
12146;BME280;6136;47.032;15.398;2023-03-19T04:17:58;97487.63;;;0.90;100.00
12146;BME280;6136;47.032;15.398;2023-03-19T04:20:27;97482.50;;;0.87;100.00
12146;BME280;6136;47.032;15.398;2023-03-19T04:22:57;97487.72;;;0.87;100.00
12146;BME280;6136;47.032;15.398;2023-03-19T04:25:25;97479.00;;;0.88;100.00
12146;BME280;6136;47.032;15.398;2023-03-19T04:27:56;97481.41;;;0.96;100.00
12146;BME280;6136;47.032;15.398;2023-03-19T04:30:26;97486.69;;;0.93;100.00
12146;BME280;6136;47.032;15.398;2023-03-19T04:32:54;97491.13;;;0.89;100.00
12146;BME280;6136;47.032;15.398;2023-03-19T04:35:23;97487.72;;;0.87;100.00
12146;BME280;6136;47.032;15.398;2023-03-19T04:37:52;97489.50;;;0.85;100.00
12146;BME280;6136;47.032;15.398;2023-03-19T04:40:22;97489.50;;;0.85;100.00
12146;BME280;6136;47.032;15.398;2023-03-19T04:42:51;97481.72;;;0.84;100.00
12146;BME280;6136;47.032;15.398;2023-03-19T04:45:30;97486.22;;;0.77;100.00
12146;BME280;6136;47.032;15.398;2023-03-19T04:47:59;97484.69;;;0.68;100.00
12146;BME280;6136;47.032;15.398;2023-03-19T04:50:29;97483.97;;;0.63;100.00
12146;BME280;6136;47.032;15.398;2023-03-19T04:52:58;97479.59;;;0.64;100.00
12146;BME280;6136;47.032;15.398;2023-03-19T04:55:29;97497.81;;;0.65;100.00
12146;BME280;6136;47.032;15.398;2023-03-19T04:58:03;97501.59;;;0.52;100.00
12146;BME280;6136;47.032;15.398;2023-03-19T05:00:34;97487.59;;;0.56;100.00
12146;BME280;6136;47.032;15.398;2023-03-19T05:03:04;97483.16;;;0.60;100.00
12146;BME280;6136;47.032;15.398;2023-03-19T05:05:36;97491.75;;;0.65;100.00
12146;BME280;6136;47.032;15.398;2023-03-19T05:08:06;97492.44;;;0.73;100.00
12146;BME280;6136;47.032;15.398;2023-03-19T05:10:36;97491.53;;;0.74;100.00
12146;BME280;6136;47.032;15.398;2023-03-19T05:13:06;97496.66;;;0.77;100.00
12146;BME280;6136;47.032;15.398;2023-03-19T05:15:41;97496.66;;;0.77;100.00
12146;BME280;6136;47.032;15.398;2023-03-19T05:18:11;97504.34;;;0.82;100.00
12146;BME280;6136;47.032;15.398;2023-03-19T05:20:43;97504.44;;;0.78;100.00
12146;BME280;6136;47.032;15.398;2023-03-19T05:23:20;97500.06;;;0.81;100.00
12146;BME280;6136;47.032;15.398;2023-03-19T05:25:58;97498.31;;;0.81;100.00
12146;BME280;6136;47.032;15.398;2023-03-19T05:28:46;97493.72;;;0.89;100.00
12146;BME280;6136;47.032;15.398;2023-03-19T05:31:18;97506.66;;;0.95;100.00
12146;BME280;6136;47.032;15.398;2023-03-19T05:33:49;97493.34;;;1.04;100.00
12146;BME280;6136;47.032;15.398;2023-03-19T05:36:18;97491.41;;;1.12;100.00
12146;BME280;6136;47.032;15.398;2023-03-19T05:38:54;97495.31;;;1.29;100.00
12146;BME280;6136;47.032;15.398;2023-03-19T05:41:29;97498.41;;;1.43;100.00
12146;BME280;6136;47.032;15.398;2023-03-19T05:44:01;97497.91;;;1.61;100.00
12146;BME280;6136;47.032;15.398;2023-03-19T05:46:41;97508.63;;;1.83;100.00
12146;BME280;6136;47.032;15.398;2023-03-19T05:49:10;97505.34;;;2.06;100.00
12146;BME280;6136;47.032;15.398;2023-03-19T05:51:38;97512.41;;;2.30;100.00
12146;BME280;6136;47.032;15.398;2023-03-19T05:54:07;97515.19;;;2.53;100.00
12146;BME280;6136;47.032;15.398;2023-03-19T05:56:45;97519.94;;;2.68;99.69
12146;BME280;6136;47.032;15.398;2023-03-19T05:59:30;97524.00;;;2.79;99.12
12146;BME280;6136;47.032;15.398;2023-03-19T06:02:28;97508.53;;;2.97;98.43
12146;BME280;6136;47.032;15.398;2023-03-19T06:05:11;97518.66;;;3.08;98.72
12146;BME280;6136;47.032;15.398;2023-03-19T06:07:40;97518.88;;;3.27;97.29
12146;BME280;6136;47.032;15.398;2023-03-19T06:10:16;97521.53;;;3.51;94.75
12146;BME280;6136;47.032;15.398;2023-03-19T06:12:48;97522.47;;;3.74;93.87
12146;BME280;6136;47.032;15.398;2023-03-19T06:15:49;97525.84;;;4.01;92.22
12146;BME280;6136;47.032;15.398;2023-03-19T06:18:25;97530.94;;;4.28;90.17
12146;BME280;6136;47.032;15.398;2023-03-19T06:20:54;97520.22;;;4.35;88.93
12146;BME280;6136;47.032;15.398;2023-03-19T06:23:22;97530.56;;;4.38;87.14
12146;BME280;6136;47.032;15.398;2023-03-19T06:25:51;97518.63;;;4.52;86.82
12146;BME280;6136;47.032;15.398;2023-03-19T06:28:22;97524.88;;;4.50;86.68
12146;BME280;6136;47.032;15.398;2023-03-19T06:30:53;97516.75;;;4.56;86.92
12146;BME280;6136;47.032;15.398;2023-03-19T06:33:59;97521.34;;;4.73;86.05
12146;BME280;6136;47.032;15.398;2023-03-19T06:36:38;97525.13;;;4.87;85.09
12146;BME280;6136;47.032;15.398;2023-03-19T06:39:09;97516.66;;;5.23;84.49
12146;BME280;6136;47.032;15.398;2023-03-19T06:41:37;97517.34;;;5.48;83.01
12146;BME280;6136;47.032;15.398;2023-03-19T06:44:14;97520.47;;;5.76;83.13
12146;BME280;6136;47.032;15.398;2023-03-19T06:46:42;97511.84;;;5.93;80.01
12146;BME280;6136;47.032;15.398;2023-03-19T06:49:11;97510.59;;;6.02;79.55
12146;BME280;6136;47.032;15.398;2023-03-19T06:51:39;97514.66;;;6.09;78.36
12146;BME280;6136;47.032;15.398;2023-03-19T06:54:07;97519.50;;;6.18;77.19
12146;BME280;6136;47.032;15.398;2023-03-19T06:56:35;97521.31;;;6.36;76.36
12146;BME280;6136;47.032;15.398;2023-03-19T06:59:03;97507.16;;;6.57;75.22
12146;BME280;6136;47.032;15.398;2023-03-19T07:01:33;97512.03;;;7.54;71.57
12146;BME280;6136;47.032;15.398;2023-03-19T07:04:01;97519.47;;;8.93;65.82
12146;BME280;6136;47.032;15.398;2023-03-19T07:06:29;97504.94;;;9.76;60.79
12146;BME280;6136;47.032;15.398;2023-03-19T07:08:59;97504.72;;;10.52;57.13
12146;BME280;6136;47.032;15.398;2023-03-19T07:11:27;97503.31;;;10.87;57.04
12146;BME280;6136;47.032;15.398;2023-03-19T07:13:55;97508.31;;;11.85;53.99
12146;BME280;6136;47.032;15.398;2023-03-19T07:16:23;97506.50;;;12.11;52.40
12146;BME280;6136;47.032;15.398;2023-03-19T07:18:53;97503.78;;;12.74;50.85
12146;BME280;6136;47.032;15.398;2023-03-19T07:21:22;97502.63;;;13.38;48.68
12146;BME280;6136;47.032;15.398;2023-03-19T07:23:50;97505.97;;;13.99;47.68
12146;BME280;6136;47.032;15.398;2023-03-19T07:26:18;97504.81;;;14.70;45.44
12146;BME280;6136;47.032;15.398;2023-03-19T07:28:46;97507.03;;;14.43;45.79
12146;BME280;6136;47.032;15.398;2023-03-19T07:31:15;97494.72;;;14.07;46.41
12146;BME280;6136;47.032;15.398;2023-03-19T07:33:43;97496.38;;;13.96;46.51
12146;BME280;6136;47.032;15.398;2023-03-19T07:36:13;97506.16;;;14.42;44.13
12146;BME280;6136;47.032;15.398;2023-03-19T07:38:41;97507.19;;;15.06;43.07
12146;BME280;6136;47.032;15.398;2023-03-19T07:41:09;97496.31;;;15.73;42.57
12146;BME280;6136;47.032;15.398;2023-03-19T07:43:44;97485.63;;;15.73;41.89
12146;BME280;6136;47.032;15.398;2023-03-19T07:46:12;97498.09;;;15.52;40.93
12146;BME280;6136;47.032;15.398;2023-03-19T07:48:41;97506.97;;;15.09;42.04
12146;BME280;6136;47.032;15.398;2023-03-19T07:51:09;97506.66;;;14.69;43.20
12146;BME280;6136;47.032;15.398;2023-03-19T07:53:39;97500.09;;;14.96;42.93
12146;BME280;6136;47.032;15.398;2023-03-19T07:56:07;97487.31;;;14.99;43.44
12146;BME280;6136;47.032;15.398;2023-03-19T07:58:36;97498.91;;;15.21;42.94
12146;BME280;6136;47.032;15.398;2023-03-19T08:01:04;97496.19;;;15.75;41.66
12146;BME280;6136;47.032;15.398;2023-03-19T08:03:32;97491.00;;;16.15;40.52
12146;BME280;6136;47.032;15.398;2023-03-19T08:06:01;97487.31;;;16.16;41.29
12146;BME280;6136;47.032;15.398;2023-03-19T08:08:29;97489.50;;;16.52;39.42
12146;BME280;6136;47.032;15.398;2023-03-19T08:11:02;97494.13;;;15.99;40.99
12146;BME280;6136;47.032;15.398;2023-03-19T08:13:30;97494.69;;;16.23;39.69
12146;BME280;6136;47.032;15.398;2023-03-19T08:15:58;97489.03;;;15.75;41.72
12146;BME280;6136;47.032;15.398;2023-03-19T08:18:26;97483.03;;;16.04;41.71
12146;BME280;6136;47.032;15.398;2023-03-19T08:20:55;97477.28;;;16.29;41.51
12146;BME280;6136;47.032;15.398;2023-03-19T08:23:23;97471.28;;;16.46;41.53
12146;BME280;6136;47.032;15.398;2023-03-19T08:25:51;97470.50;;;16.86;40.00
12146;BME280;6136;47.032;15.398;2023-03-19T08:28:22;97460.22;;;16.81;41.07
12146;BME280;6136;47.032;15.398;2023-03-19T08:30:50;97475.28;;;16.92;39.88
12146;BME280;6136;47.032;15.398;2023-03-19T08:33:18;97481.84;;;17.57;38.61
12146;BME280;6136;47.032;15.398;2023-03-19T08:35:46;97475.66;;;18.04;37.09
12146;BME280;6136;47.032;15.398;2023-03-19T08:38:15;97480.34;;;17.83;38.41
12146;BME280;6136;47.032;15.398;2023-03-19T08:40:43;97482.72;;;17.86;38.11
12146;BME280;6136;47.032;15.398;2023-03-19T08:43:11;97491.81;;;18.88;36.02
12146;BME280;6136;47.032;15.398;2023-03-19T08:45:43;97497.28;;;19.41;35.33
12146;BME280;6136;47.032;15.398;2023-03-19T08:48:11;97494.63;;;20.89;32.89
12146;BME280;6136;47.032;15.398;2023-03-19T08:50:39;97487.50;;;22.13;31.15
12146;BME280;6136;47.032;15.398;2023-03-19T08:53:07;97486.97;;;22.50;30.51
12146;BME280;6136;47.032;15.398;2023-03-19T08:55:35;97499.75;;;22.64;30.10
12146;BME280;6136;47.032;15.398;2023-03-19T08:58:04;97491.66;;;22.56;30.75
12146;BME280;6136;47.032;15.398;2023-03-19T09:00:32;97483.81;;;22.06;31.04
12146;BME280;6136;47.032;15.398;2023-03-19T09:03:02;97481.88;;;21.66;31.90
12146;BME280;6136;47.032;15.398;2023-03-19T09:05:30;97487.63;;;21.63;32.01
12146;BME280;6136;47.032;15.398;2023-03-19T09:07:58;97471.38;;;22.76;29.40
12146;BME280;6136;47.032;15.398;2023-03-19T09:10:26;97480.06;;;21.91;30.95
12146;BME280;6136;47.032;15.398;2023-03-19T09:12:54;97481.25;;;23.00;29.19
12146;BME280;6136;47.032;15.398;2023-03-19T09:15:23;97488.78;;;22.74;29.97
12146;BME280;6136;47.032;15.398;2023-03-19T09:17:51;97486.66;;;22.37;30.92
12146;BME280;6136;47.032;15.398;2023-03-19T09:20:21;97478.59;;;22.92;29.10
12146;BME280;6136;47.032;15.398;2023-03-19T09:22:49;97476.06;;;22.82;29.93
12146;BME280;6136;47.032;15.398;2023-03-19T09:25:17;97474.75;;;22.78;29.21
12146;BME280;6136;47.032;15.398;2023-03-19T09:27:45;97469.41;;;22.46;30.90
12146;BME280;6136;47.032;15.398;2023-03-19T09:30:14;97471.03;;;23.80;27.23
12146;BME280;6136;47.032;15.398;2023-03-19T09:32:42;97470.91;;;23.12;28.85
12146;BME280;6136;47.032;15.398;2023-03-19T09:35:10;97465.97;;;24.00;27.63
12146;BME280;6136;47.032;15.398;2023-03-19T09:37:39;97466.41;;;23.27;28.67
12146;BME280;6136;47.032;15.398;2023-03-19T09:40:15;97465.53;;;22.40;29.32
12146;BME280;6136;47.032;15.398;2023-03-19T09:42:59;97455.34;;;24.36;27.08
12146;BME280;6136;47.032;15.398;2023-03-19T09:45:33;97446.84;;;23.79;26.86
12146;BME280;6136;47.032;15.398;2023-03-19T09:48:04;97455.47;;;22.90;28.71
12146;BME280;6136;47.032;15.398;2023-03-19T09:50:33;97458.97;;;22.43;28.48
12146;BME280;6136;47.032;15.398;2023-03-19T09:53:09;97477.28;;;22.80;29.28
12146;BME280;6136;47.032;15.398;2023-03-19T09:55:42;97456.47;;;23.58;27.48
12146;BME280;6136;47.032;15.398;2023-03-19T09:58:17;97462.19;;;22.94;28.30
12146;BME280;6136;47.032;15.398;2023-03-19T10:00:47;97455.94;;;23.63;27.23
12146;BME280;6136;47.032;15.398;2023-03-19T10:03:32;97442.66;;;23.45;27.56
12146;BME280;6136;47.032;15.398;2023-03-19T10:06:13;97445.25;;;23.08;27.66
12146;BME280;6136;47.032;15.398;2023-03-19T10:09:11;97439.47;;;22.64;28.55
12146;BME280;6136;47.032;15.398;2023-03-19T10:11:51;97448.63;;;21.25;29.80
12146;BME280;6136;47.032;15.398;2023-03-19T10:14:44;97450.56;;;20.65;30.69
12146;BME280;6136;47.032;15.398;2023-03-19T10:17:18;97440.59;;;20.99;29.63
12146;BME280;6136;47.032;15.398;2023-03-19T10:19:50;97442.53;;;21.23;30.49
12146;BME280;6136;47.032;15.398;2023-03-19T10:22:22;97428.63;;;22.17;27.87
12146;BME280;6136;47.032;15.398;2023-03-19T10:24:55;97433.66;;;21.79;30.25
12146;BME280;6136;47.032;15.398;2023-03-19T10:27:26;97439.69;;;21.24;30.50
12146;BME280;6136;47.032;15.398;2023-03-19T10:29:55;97427.47;;;21.71;30.79
12146;BME280;6136;47.032;15.398;2023-03-19T10:32:28;97433.78;;;22.51;29.92
12146;BME280;6136;47.032;15.398;2023-03-19T10:35:06;97433.28;;;23.02;28.12
12146;BME280;6136;47.032;15.398;2023-03-19T10:37:36;97432.13;;;22.33;27.39
12146;BME280;6136;47.032;15.398;2023-03-19T10:40:15;97435.06;;;22.71;27.01
12146;BME280;6136;47.032;15.398;2023-03-19T10:42:56;97437.38;;;20.96;28.85
12146;BME280;6136;47.032;15.398;2023-03-19T10:45:30;97427.06;;;20.23;30.57
12146;BME280;6136;47.032;15.398;2023-03-19T10:48:01;97426.91;;;20.84;28.67
12146;BME280;6136;47.032;15.398;2023-03-19T10:50:31;97438.41;;;20.61;29.41
12146;BME280;6136;47.032;15.398;2023-03-19T10:53:10;97435.97;;;19.98;29.90
12146;BME280;6136;47.032;15.398;2023-03-19T10:55:53;97432.88;;;19.85;30.00
12146;BME280;6136;47.032;15.398;2023-03-19T10:58:24;97430.38;;;18.75;31.73
12146;BME280;6136;47.032;15.398;2023-03-19T11:00:56;97418.66;;;18.76;31.43
12146;BME280;6136;47.032;15.398;2023-03-19T11:03:36;97423.75;;;18.97;30.61
12146;BME280;6136;47.032;15.398;2023-03-19T11:06:14;97417.44;;;17.77;34.03
12146;BME280;6136;47.032;15.398;2023-03-19T11:08:51;97418.63;;;18.02;33.69
12146;BME280;6136;47.032;15.398;2023-03-19T11:11:26;97424.31;;;17.99;33.53
12146;BME280;6136;47.032;15.398;2023-03-19T11:14:05;97418.34;;;18.15;33.55
12146;BME280;6136;47.032;15.398;2023-03-19T11:16:46;97418.16;;;18.16;33.69
12146;BME280;6136;47.032;15.398;2023-03-19T11:19:18;97425.41;;;18.06;34.56
12146;BME280;6136;47.032;15.398;2023-03-19T11:22:02;97416.25;;;17.99;34.67
12146;BME280;6136;47.032;15.398;2023-03-19T11:24:31;97414.09;;;18.12;34.45
12146;BME280;6136;47.032;15.398;2023-03-19T11:27:01;97412.56;;;18.47;33.55
12146;BME280;6136;47.032;15.398;2023-03-19T11:29:29;97405.94;;;18.78;33.42
12146;BME280;6136;47.032;15.398;2023-03-19T11:32:06;97414.69;;;18.06;34.16
12146;BME280;6136;47.032;15.398;2023-03-19T11:34:51;97414.38;;;18.09;34.32
12146;BME280;6136;47.032;15.398;2023-03-19T11:37:27;97421.91;;;18.43;33.49
12146;BME280;6136;47.032;15.398;2023-03-19T11:40:05;97414.81;;;18.14;34.77
12146;BME280;6136;47.032;15.398;2023-03-19T11:42:47;97418.84;;;18.92;33.37
12146;BME280;6136;47.032;15.398;2023-03-19T11:45:28;97409.69;;;21.19;30.40
12146;BME280;6136;47.032;15.398;2023-03-19T11:48:08;97401.88;;;23.01;28.13
12146;BME280;6136;47.032;15.398;2023-03-19T11:50:44;97398.47;;;24.36;25.97
12146;BME280;6136;47.032;15.398;2023-03-19T11:53:22;97387.25;;;24.54;25.81
12146;BME280;6136;47.032;15.398;2023-03-19T11:55:58;97379.13;;;24.24;26.34
12146;BME280;6136;47.032;15.398;2023-03-19T11:58:46;97377.66;;;24.36;26.12
12146;BME280;6136;47.032;15.398;2023-03-19T12:01:30;97365.00;;;24.73;26.33
12146;BME280;6136;47.032;15.398;2023-03-19T12:04:44;97365.84;;;24.73;25.89
12146;BME280;6136;47.032;15.398;2023-03-19T12:07:23;97355.72;;;25.33;24.91
12146;BME280;6136;47.032;15.398;2023-03-19T12:10:06;97366.81;;;26.64;24.26
12146;BME280;6136;47.032;15.398;2023-03-19T12:12:50;97362.28;;;26.78;23.58
12146;BME280;6136;47.032;15.398;2023-03-19T12:15:28;97359.28;;;26.59;23.26
12146;BME280;6136;47.032;15.398;2023-03-19T12:18:06;97363.00;;;28.46;21.02
12146;BME280;6136;47.032;15.398;2023-03-19T12:20:50;97362.53;;;28.75;21.09
12146;BME280;6136;47.032;15.398;2023-03-19T12:23:38;97358.97;;;27.36;23.97
12146;BME280;6136;47.032;15.398;2023-03-19T12:26:16;97353.50;;;27.23;23.20
12146;BME280;6136;47.032;15.398;2023-03-19T12:28:55;97356.16;;;26.28;24.32
12146;BME280;6136;47.032;15.398;2023-03-19T12:31:35;97346.94;;;26.01;24.81
12146;BME280;6136;47.032;15.398;2023-03-19T12:34:19;97354.66;;;28.34;21.88
12146;BME280;6136;47.032;15.398;2023-03-19T12:36:52;97355.59;;;27.28;23.13
12146;BME280;6136;47.032;15.398;2023-03-19T12:39:23;97358.00;;;27.64;22.32
12146;BME280;6136;47.032;15.398;2023-03-19T12:41:53;97358.00;;;26.55;23.64
12146;BME280;6136;47.032;15.398;2023-03-19T12:44:29;97353.75;;;26.46;23.45
12146;BME280;6136;47.032;15.398;2023-03-19T12:47:03;97357.59;;;28.06;22.21
12146;BME280;6136;47.032;15.398;2023-03-19T12:49:36;97353.50;;;27.23;22.47
12146;BME280;6136;47.032;15.398;2023-03-19T12:52:12;97365.19;;;26.76;23.34
12146;BME280;6136;47.032;15.398;2023-03-19T12:54:45;97365.50;;;28.54;20.96
12146;BME280;6136;47.032;15.398;2023-03-19T12:57:20;97357.41;;;27.01;22.02
12146;BME280;6136;47.032;15.398;2023-03-19T12:59:54;97358.13;;;26.13;23.16
12146;BME280;6136;47.032;15.398;2023-03-19T13:02:31;97354.06;;;25.74;23.98
12146;BME280;6136;47.032;15.398;2023-03-19T13:05:06;97358.34;;;25.62;24.14
12146;BME280;6136;47.032;15.398;2023-03-19T13:07:45;97356.91;;;24.29;25.68
12146;BME280;6136;47.032;15.398;2023-03-19T13:10:18;97350.50;;;23.55;26.57
12146;BME280;6136;47.032;15.398;2023-03-19T13:12:48;97361.13;;;22.17;27.66
12146;BME280;6136;47.032;15.398;2023-03-19T13:15:23;97353.09;;;21.92;28.23
12146;BME280;6136;47.032;15.398;2023-03-19T13:18:02;97348.75;;;21.26;29.15
12146;BME280;6136;47.032;15.398;2023-03-19T13:20:46;97353.81;;;20.71;30.92
12146;BME280;6136;47.032;15.398;2023-03-19T13:23:21;97352.28;;;20.77;31.43
12146;BME280;6136;47.032;15.398;2023-03-19T13:25:54;97345.84;;;21.44;29.83
12146;BME280;6136;47.032;15.398;2023-03-19T13:28:27;97341.31;;;21.28;30.22
12146;BME280;6136;47.032;15.398;2023-03-19T13:31:00;97347.69;;;21.92;28.98